Time;durP1;ratioP1;P1;durP2;ratioP2;P2;SDS_P1;SDS_P2;PMS_P1;PMS_P2;Temp;Humidity;BMP_temperature;BMP_pressure;BME280_temperature;BME280_humidity;BME280_pressure;Samples;Min_cycle;Max_cycle;Signal;HPM_P1;HPM_P2
2022/09/28 00:01:24;;;;;;;3.80;2.53;;;9.10;99.90;;;;;;5024067;28;20083;-73
2022/09/28 00:03:52;;;;;;;4.85;2.72;;;9.10;99.90;;;;;;5024053;28;20536;-73
2022/09/28 00:06:20;;;;;;;5.47;2.95;;;9.00;99.90;;;;;;5042292;28;20445;-73
2022/09/28 00:08:48;;;;;;;5.80;2.90;;;9.00;99.90;;;;;;5039148;28;20038;-73
2022/09/28 00:11:19;;;;;;;5.55;3.10;;;9.00;99.90;;;;;;5017680;28;20033;-73
2022/09/28 00:13:50;;;;;;;7.22;2.85;;;8.90;99.90;;;;;;5008242;28;20118;-73
2022/09/28 00:16:18;;;;;;;4.22;2.40;;;8.90;99.90;;;;;;5023445;28;20052;-73
2022/09/28 00:18:44;;;;;;;5.65;2.90;;;8.90;99.90;;;;;;5023970;28;20305;-73
2022/09/28 00:21:16;;;;;;;4.30;2.28;;;8.90;99.90;;;;;;5004260;28;20491;-73
2022/09/28 00:26:29;;;;;;;4.80;2.67;;;8.80;99.90;;;;;;5042417;28;20151;-73
2022/09/28 00:28:59;;;;;;;5.70;2.70;;;8.80;99.90;;;;;;5020306;28;20517;-73
2022/09/28 00:31:27;;;;;;;5.00;2.72;;;8.80;99.90;;;;;;5021108;28;20037;-73
2022/09/28 00:33:55;;;;;;;9.05;3.22;;;8.80;99.90;;;;;;5018720;28;20418;-73
2022/09/28 00:36:22;;;;;;;5.03;2.72;;;8.80;99.90;;;;;;5025636;28;20047;-73
2022/09/28 00:38:48;;;;;;;6.15;2.92;;;8.70;99.90;;;;;;5033841;28;20048;-73
2022/09/28 00:41:14;;;;;;;5.10;2.90;;;8.70;99.90;;;;;;5018700;28;20057;-73
2022/09/28 00:43:41;;;;;;;6.88;3.38;;;8.70;99.90;;;;;;5022864;28;20045;-73
2022/09/28 00:46:18;;;;;;;6.20;3.15;;;8.70;99.90;;;;;;5022283;28;20060;-73
2022/09/28 00:48:55;;;;;;;6.93;3.40;;;8.70;99.90;;;;;;5032910;28;20036;-73
2022/09/28 00:51:23;;;;;;;4.25;2.40;;;8.80;99.90;;;;;;5015205;28;20045;-73
2022/09/28 00:53:50;;;;;;;5.38;3.00;;;8.80;99.90;;;;;;5021101;28;20851;-73
2022/09/28 00:56:20;;;;;;;7.82;3.08;;;8.80;99.90;;;;;;5015557;28;20996;-73
2022/09/28 00:58:50;;;;;;;6.32;2.80;;;8.80;99.90;;;;;;5039079;28;20213;-73
2022/09/28 01:01:16;;;;;;;5.15;2.72;;;8.80;99.90;;;;;;5022498;28;20047;-73
2022/09/28 01:03:47;;;;;;;5.95;3.72;;;8.80;99.90;;;;;;5025343;28;20068;-73
2022/09/28 01:06:29;;;;;;;6.50;3.10;;;8.80;99.90;;;;;;5025619;28;20060;-73
2022/09/28 01:08:59;;;;;;;6.07;3.08;;;8.80;99.90;;;;;;5017897;28;20037;-73
2022/09/28 01:11:26;;;;;;;6.82;2.92;;;8.80;99.90;;;;;;5020325;28;20484;-73
2022/09/28 01:13:55;;;;;;;5.93;3.22;;;8.80;99.90;;;;;;5022553;28;20048;-73
2022/09/28 01:16:47;;;;;;;4.93;2.70;;;8.80;99.90;;;;;;5008289;28;20045;-73
2022/09/28 01:19:50;;;;;;;7.20;3.35;;;8.80;99.90;;;;;;5038324;28;20078;-73
2022/09/28 01:22:34;;;;;;;5.88;2.85;;;8.70;99.90;;;;;;5022987;28;20366;-73
2022/09/28 01:25:05;;;;;;;5.50;3.25;;;8.80;99.90;;;;;;5019976;28;20042;-73
2022/09/28 01:27:56;;;;;;;5.78;2.92;;;8.70;99.90;;;;;;5038773;28;20112;-73
2022/09/28 01:30:22;;;;;;;5.32;2.90;;;8.70;99.90;;;;;;5040475;28;20060;-73
2022/09/28 01:33:08;;;;;;;5.95;3.20;;;8.70;99.90;;;;;;5039028;28;20134;-73
2022/09/28 01:35:42;;;;;;;5.43;3.20;;;8.70;99.90;;;;;;5023332;28;20656;-73
2022/09/28 01:38:24;;;;;;;5.30;3.10;;;8.70;99.90;;;;;;5024723;28;20033;-73
2022/09/28 01:40:52;;;;;;;7.20;3.20;;;8.70;99.90;;;;;;5022206;28;20186;-73
2022/09/28 01:43:22;;;;;;;5.05;3.38;;;8.70;99.90;;;;;;5038016;28;20053;-73
2022/09/28 01:46:10;;;;;;;5.32;3.47;;;8.70;99.90;;;;;;5024800;28;20335;-73
2022/09/28 01:48:45;;;;;;;6.30;3.65;;;8.70;99.90;;;;;;5021209;28;20050;-73
2022/09/28 01:51:18;;;;;;;4.88;3.33;;;8.70;99.90;;;;;;5021068;28;20185;-73
2022/09/28 01:53:50;;;;;;;7.28;3.30;;;8.60;99.90;;;;;;5006611;28;20049;-73
2022/09/28 01:56:37;;;;;;;6.85;3.60;;;8.60;99.90;;;;;;5039533;28;20051;-73
2022/09/28 01:59:11;;;;;;;6.97;3.60;;;8.70;99.90;;;;;;5038875;28;20505;-73
2022/09/28 02:01:45;;;;;;;5.95;3.35;;;8.60;99.90;;;;;;5004649;28;20063;-73
2022/09/28 02:04:16;;;;;;;5.00;3.22;;;8.60;99.90;;;;;;5022189;28;20425;-73
2022/09/28 02:07:06;;;;;;;6.53;3.45;;;8.60;99.90;;;;;;5019903;28;20037;-73
2022/09/28 02:09:37;;;;;;;5.25;3.58;;;8.60;99.90;;;;;;5064279;22;20701;-73
2022/09/28 02:12:19;;;;;;;6.07;3.22;;;8.60;99.90;;;;;;5065098;28;20085;-72
2022/09/28 02:14:51;;;;;;;9.25;4.07;;;8.60;99.90;;;;;;5077044;28;20040;-73
2022/09/28 02:17:17;;;;;;;7.35;3.88;;;8.60;99.90;;;;;;5101354;27;20058;-73
2022/09/28 02:19:43;;;;;;;4.97;3.10;;;8.60;99.90;;;;;;5083881;28;20044;-73
2022/09/28 02:22:23;;;;;;;6.30;3.60;;;8.60;99.90;;;;;;5078704;28;20040;-72
2022/09/28 02:24:58;;;;;;;7.40;3.55;;;8.60;99.90;;;;;;5080931;28;20117;-73
2022/09/28 02:27:35;;;;;;;6.40;3.70;;;8.70;99.90;;;;;;5081398;28;20036;-74
2022/09/28 02:30:03;;;;;;;5.78;3.40;;;8.70;99.90;;;;;;5087570;28;20043;-73
2022/09/28 02:32:32;;;;;;;5.35;2.90;;;8.70;99.90;;;;;;5093752;28;20044;-73
2022/09/28 02:34:58;;;;;;;7.35;3.60;;;8.70;99.90;;;;;;5068886;28;20450;-73
2022/09/28 02:37:25;;;;;;;6.50;2.83;;;8.70;99.90;;;;;;5068621;28;20098;-73
2022/09/28 02:39:51;;;;;;;5.65;3.35;;;8.70;99.90;;;;;;5074579;28;20109;-73
2022/09/28 02:42:26;;;;;;;5.50;3.37;;;8.70;99.90;;;;;;5071760;28;20513;-73
2022/09/28 02:45:09;;;;;;;7.53;3.42;;;8.70;99.90;;;;;;5073863;28;20215;-73
2022/09/28 02:47:49;;;;;;;9.05;3.75;;;8.70;99.90;;;;;;5074645;28;20040;-73
2022/09/28 02:50:37;;;;;;;6.15;3.40;;;8.70;99.90;;;;;;5076697;28;20044;-73
2022/09/28 02:53:02;;;;;;;6.93;3.75;;;8.70;99.90;;;;;;5077884;28;20039;-73
2022/09/28 02:55:34;;;;;;;6.97;3.67;;;8.70;99.90;;;;;;5076758;28;20044;-73
2022/09/28 02:58:11;;;;;;;9.70;3.35;;;8.70;99.90;;;;;;5063766;28;20310;-72
2022/09/28 03:00:51;;;;;;;5.75;3.42;;;8.70;99.90;;;;;;5074020;28;20041;-73
2022/09/28 03:03:30;;;;;;;6.03;3.40;;;8.70;99.90;;;;;;5075671;28;20339;-73
2022/09/28 03:06:07;;;;;;;6.85;3.55;;;8.70;99.90;;;;;;5079052;28;20389;-73
2022/09/28 03:08:39;;;;;;;6.93;3.60;;;8.70;99.90;;;;;;5079470;28;20515;-73
2022/09/28 03:11:19;;;;;;;5.38;2.92;;;8.70;99.90;;;;;;5087196;28;20036;-73
2022/09/28 03:13:45;;;;;;;4.82;3.22;;;8.70;99.90;;;;;;5080977;28;20071;-73
2022/09/28 03:16:16;;;;;;;6.30;3.28;;;8.70;99.90;;;;;;5081992;28;20430;-72
2022/09/28 03:18:42;;;;;;;6.28;3.50;;;8.70;99.90;;;;;;5079178;28;20567;-73
2022/09/28 03:21:10;;;;;;;5.22;3.00;;;8.70;99.90;;;;;;5079843;28;20064;-73
2022/09/28 03:23:36;;;;;;;4.95;3.00;;;8.70;99.90;;;;;;5079936;28;20056;-73
2022/09/28 03:26:02;;;;;;;6.30;3.63;;;8.70;99.90;;;;;;5083146;28;20405;-73
2022/09/28 03:28:28;;;;;;;6.43;3.38;;;8.70;99.90;;;;;;5059003;28;20275;-72
2022/09/28 03:30:54;;;;;;;6.13;3.35;;;8.70;99.90;;;;;;5079709;28;20447;-72
2022/09/28 03:33:20;;;;;;;6.28;3.85;;;8.60;99.90;;;;;;5079013;28;20040;-72
2022/09/28 03:35:47;;;;;;;6.38;3.63;;;8.70;99.90;;;;;;5085697;28;20086;-73
2022/09/28 03:38:13;;;;;;;5.75;3.63;;;8.60;99.90;;;;;;5076971;28;20036;-73
2022/09/28 03:40:39;;;;;;;6.60;3.58;;;8.60;99.90;;;;;;5065779;28;20396;-72
2022/09/28 03:43:04;;;;;;;7.53;3.97;;;8.70;99.90;;;;;;5056971;28;20036;-73
2022/09/28 03:45:30;;;;;;;6.53;3.45;;;8.60;99.90;;;;;;5062515;28;20040;-73
2022/09/28 03:47:56;;;;;;;4.97;3.10;;;8.70;99.90;;;;;;5085999;28;20427;-73
2022/09/28 03:50:22;;;;;;;7.38;3.55;;;8.60;99.90;;;;;;5078524;28;20035;-73
2022/09/28 03:52:50;;;;;;;5.73;3.27;;;8.60;99.90;;;;;;5078754;28;20040;-72
2022/09/28 03:55:19;;;;;;;5.78;3.40;;;8.70;99.90;;;;;;5079982;28;20210;-72
2022/09/28 03:57:52;;;;;;;6.53;3.78;;;8.70;99.90;;;;;;5079097;28;20071;-72
2022/09/28 04:00:21;;;;;;;6.90;3.50;;;8.70;99.90;;;;;;5074544;28;20037;-73
2022/09/28 04:02:50;;;;;;;5.95;3.67;;;8.70;99.90;;;;;;5073311;28;20112;-72
2022/09/28 04:05:16;;;;;;;5.68;3.47;;;8.70;99.90;;;;;;5083541;28;20036;-73
2022/09/28 04:07:42;;;;;;;6.60;3.80;;;8.70;99.90;;;;;;5065802;28;20374;-73
2022/09/28 04:10:08;;;;;;;5.45;3.40;;;8.70;99.90;;;;;;5080973;28;20047;-72
2022/09/28 04:12:33;;;;;;;6.10;3.58;;;8.70;99.90;;;;;;5093929;28;20504;-72
2022/09/28 04:14:59;;;;;;;6.73;2.90;;;8.70;99.90;;;;;;5086630;28;20058;-73
2022/09/28 04:17:25;;;;;;;6.63;4.17;;;8.70;99.90;;;;;;5077648;28;20044;-73
2022/09/28 04:19:50;;;;;;;4.83;2.97;;;8.70;99.90;;;;;;5079094;28;20407;-73
2022/09/28 04:22:16;;;;;;;6.20;3.57;;;8.70;99.90;;;;;;5080443;28;20052;-73
2022/09/28 04:24:42;;;;;;;6.60;3.27;;;8.70;99.90;;;;;;5080808;28;20043;-73
2022/09/28 04:29:52;;;;;;;5.90;3.38;;;8.70;99.90;;;;;;5080141;28;20052;-72
2022/09/28 04:32:21;;;;;;;6.50;3.53;;;8.70;99.90;;;;;;5077506;28;20039;-72
2022/09/28 04:34:46;;;;;;;7.55;3.05;;;8.70;99.90;;;;;;5071199;28;20044;-71
2022/09/28 04:37:12;;;;;;;8.43;3.83;;;8.70;99.90;;;;;;5076252;28;20465;-71
2022/09/28 04:39:39;;;;;;;6.43;3.47;;;8.70;99.90;;;;;;5081117;28;20055;-71
2022/09/28 04:42:05;;;;;;;5.25;3.22;;;8.80;99.90;;;;;;5079040;28;20571;-72
2022/09/28 04:44:30;;;;;;;6.30;3.53;;;8.80;99.90;;;;;;5078619;28;20051;-71
2022/09/28 04:46:56;;;;;;;5.43;3.23;;;8.80;99.90;;;;;;5075235;28;20044;-71
2022/09/28 04:49:23;;;;;;;6.77;3.73;;;8.80;99.90;;;;;;5082273;28;20043;-71
2022/09/28 04:51:49;;;;;;;5.70;3.40;;;8.80;99.90;;;;;;5081300;28;20089;-71
2022/09/28 04:54:15;;;;;;;6.07;3.20;;;8.80;99.90;;;;;;5078804;28;20527;-71
2022/09/28 04:56:40;;;;;;;5.53;3.37;;;8.80;99.90;;;;;;5074564;28;20135;-71
2022/09/28 04:59:06;;;;;;;6.60;3.80;;;8.80;99.90;;;;;;5097887;28;20039;-71
2022/09/28 05:01:32;;;;;;;7.07;3.60;;;8.80;99.90;;;;;;5056403;28;20059;-71
2022/09/28 05:03:58;;;;;;;5.60;3.37;;;8.90;99.90;;;;;;5075847;28;20065;-71
2022/09/28 05:06:26;;;;;;;6.03;3.60;;;8.80;99.90;;;;;;5075187;28;20036;-71
2022/09/28 05:08:52;;;;;;;5.43;3.08;;;8.80;99.90;;;;;;5081550;28;20036;-72
2022/09/28 05:11:21;;;;;;;5.18;2.92;;;8.90;99.90;;;;;;5068550;28;20039;-71
2022/09/28 05:13:49;;;;;;;6.18;3.63;;;8.80;99.90;;;;;;5077972;28;20174;-71
2022/09/28 05:16:15;;;;;;;9.45;4.30;;;8.90;99.90;;;;;;5071692;28;20032;-71
2022/09/28 05:18:41;;;;;;;9.07;3.50;;;8.90;99.90;;;;;;5079016;28;20492;-71
2022/09/28 05:21:11;;;;;;;6.65;3.88;;;8.90;99.90;;;;;;5084114;28;20040;-71
2022/09/28 05:23:38;;;;;;;6.35;3.72;;;8.90;99.90;;;;;;5075084;28;20051;-71
2022/09/28 05:26:04;;;;;;;;;;;8.80;99.90;;;;;;5077472;28;20509;-71
2022/09/28 05:28:32;;;;;;;5.40;2.90;;;8.90;99.90;;;;;;5077402;28;19931;-71
2022/09/28 05:31:02;;;;;;;5.72;3.30;;;8.80;99.90;;;;;;5090097;27;20066;-71
2022/09/28 05:33:28;;;;;;;6.20;3.30;;;8.80;99.90;;;;;;5069550;28;20132;-71
2022/09/28 05:35:54;;;;;;;;;;;8.80;99.90;;;;;;5069711;28;20068;-71
2022/09/28 05:38:20;;;;;;;5.93;3.22;;;8.80;99.90;;;;;;5082091;28;20383;-71
2022/09/28 05:40:45;;;;;;;5.33;3.47;;;8.80;99.90;;;;;;5073594;28;20055;-71
2022/09/28 05:43:11;;;;;;;5.75;3.20;;;8.70;99.90;;;;;;5074581;28;20059;-71
2022/09/28 05:45:37;;;;;;;6.03;3.47;;;8.70;99.90;;;;;;5079480;28;20051;-71
2022/09/28 05:48:02;;;;;;;5.83;3.00;;;8.70;99.90;;;;;;5083900;28;20068;-74
2022/09/28 05:50:28;;;;;;;4.90;2.73;;;8.70;99.90;;;;;;5079722;28;20135;-71
2022/09/28 05:53:02;;;;;;;5.20;3.07;;;8.70;99.90;;;;;;5083740;28;20036;-71
2022/09/28 05:55:28;;;;;;;4.50;2.70;;;8.60;99.90;;;;;;5073549;28;20269;-72
2022/09/28 05:57:59;;;;;;;5.22;3.22;;;8.70;99.90;;;;;;5079720;28;20142;-73
2022/09/28 06:00:26;;;;;;;7.18;3.40;;;8.50;99.90;;;;;;5068936;28;20044;-73
2022/09/28 06:03:00;;;;;;;6.63;3.33;;;8.70;99.90;;;;;;5074953;28;20111;-72
2022/09/28 06:05:27;;;;;;;5.32;3.05;;;8.70;99.90;;;;;;5059647;28;20044;-71
2022/09/28 06:07:57;;;;;;;8.27;3.83;;;8.70;99.90;;;;;;5091073;28;20575;-71
2022/09/28 06:10:25;;;;;;;6.35;3.30;;;8.70;99.90;;;;;;5078032;28;20040;-71
2022/09/28 06:12:57;;;;;;;6.35;3.78;;;8.70;99.90;;;;;;5071222;28;20043;-74
2022/09/28 06:15:26;;;;;;;4.63;2.95;;;8.60;99.90;;;;;;5072830;28;20044;-71
2022/09/28 06:18:08;;;;;;;7.38;3.80;;;8.70;99.90;;;;;;5073622;28;20036;-71
2022/09/28 06:20:37;;;;;;;7.80;3.45;;;8.70;99.90;;;;;;5079655;28;20045;-71
2022/09/28 06:23:03;;;;;;;5.75;3.50;;;8.70;99.90;;;;;;5077577;28;20044;-71
2022/09/28 06:25:29;;;;;;;6.97;2.80;;;8.60;99.90;;;;;;5080450;28;20044;-72
2022/09/28 06:28:21;;;;;;;6.05;3.33;;;8.60;99.90;;;;;;5073145;28;20085;-71
2022/09/28 06:30:47;;;;;;;5.32;2.90;;;8.70;99.90;;;;;;5067283;28;20056;-71
2022/09/28 06:33:13;;;;;;;7.03;3.35;;;8.60;99.90;;;;;;5074024;28;20042;-71
2022/09/28 06:35:39;;;;;;;5.97;3.25;;;8.60;99.90;;;;;;5076152;28;20133;-71
2022/09/28 06:38:05;;;;;;;6.97;3.72;;;8.70;99.90;;;;;;5078494;28;20035;-71
2022/09/28 06:40:32;;;;;;;5.50;3.37;;;8.60;99.90;;;;;;5080409;28;20094;-71
2022/09/28 06:43:08;;;;;;;6.18;3.70;;;8.60;99.90;;;;;;5078714;28;20564;-71
2022/09/28 06:45:35;;;;;;;7.22;3.63;;;8.60;99.90;;;;;;5072168;28;20139;-71
2022/09/28 06:48:01;;;;;;;7.50;3.65;;;8.60;99.90;;;;;;5070295;28;20041;-71
2022/09/28 06:50:52;;;;;;;7.28;3.55;;;8.60;99.90;;;;;;5068726;28;20040;-71
2022/09/28 06:53:22;;;;;;;5.65;3.40;;;8.60;99.90;;;;;;5068262;28;20443;-71
2022/09/28 06:55:50;;;;;;;7.22;3.35;;;8.60;99.90;;;;;;5079505;28;20209;-71
2022/09/28 06:58:19;;;;;;;5.35;2.90;;;8.60;99.90;;;;;;5072800;28;20545;-71
2022/09/28 07:00:46;;;;;;;5.93;3.55;;;8.70;99.90;;;;;;5071349;28;20286;-71
2022/09/28 07:03:20;;;;;;;7.93;3.97;;;8.70;99.90;;;;;;5072882;28;20421;-71
2022/09/28 07:05:49;;;;;;;6.97;3.65;;;8.70;99.90;;;;;;5079425;28;20055;-71
2022/09/28 07:08:16;;;;;;;7.10;3.03;;;8.80;99.90;;;;;;5076184;28;20067;-71
2022/09/28 07:10:43;;;;;;;7.32;3.33;;;8.80;99.90;;;;;;5075200;28;20485;-71
2022/09/28 07:13:10;;;;;;;7.68;3.45;;;8.80;99.90;;;;;;5081327;28;20032;-72
2022/09/28 07:15:36;;;;;;;5.35;3.55;;;8.80;99.90;;;;;;5078774;28;20043;-71
2022/09/28 07:18:04;;;;;;;5.78;3.40;;;8.80;99.90;;;;;;5075134;28;20456;-71
2022/09/28 07:20:34;;;;;;;6.97;3.15;;;8.90;99.90;;;;;;5067232;28;20036;-71
2022/09/28 07:23:03;;;;;;;6.22;3.50;;;8.90;99.90;;;;;;5074125;28;20191;-71
2022/09/28 07:25:30;;;;;;;7.18;3.38;;;9.00;99.90;;;;;;5071117;28;20344;-71
2022/09/28 07:27:58;;;;;;;7.32;3.70;;;9.00;99.90;;;;;;5076607;28;20063;-71
2022/09/28 07:30:31;;;;;;;7.22;3.45;;;9.00;99.90;;;;;;5076212;28;20032;-71
2022/09/28 07:32:59;;;;;;;6.88;3.60;;;9.00;99.90;;;;;;5073769;28;20101;-71
2022/09/28 07:35:24;;;;;;;5.50;3.33;;;9.10;99.90;;;;;;5076428;28;20513;-71
2022/09/28 07:37:59;;;;;;;6.13;3.38;;;9.10;99.90;;;;;;5074812;28;20078;-71
2022/09/28 07:43:11;;;;;;;8.75;3.70;;;9.20;99.90;;;;;;5068421;28;20425;-72
2022/09/28 07:45:38;;;;;;;7.70;3.20;;;9.30;99.90;;;;;;5073135;28;20412;-72
2022/09/28 07:48:04;;;;;;;7.72;3.25;;;9.40;99.90;;;;;;5080035;28;20481;-72
2022/09/28 07:50:30;;;;;;;7.28;2.72;;;9.40;99.90;;;;;;5078835;28;20436;-72
2022/09/28 07:52:56;;;;;;;5.28;2.70;;;9.40;99.90;;;;;;5081960;28;20047;-73
2022/09/28 07:55:22;;;;;;;;;;;9.50;99.90;;;;;;5080465;28;20130;-72
2022/09/28 07:57:59;;;;;;;6.15;3.10;;;9.50;99.90;;;;;;5083563;28;20098;-72
2022/09/28 08:00:26;;;;;;;;;;;9.60;99.90;;;;;;5083372;28;20051;-72
2022/09/28 08:02:51;;;;;;;4.57;2.72;;;9.70;99.90;;;;;;5074027;28;19924;-71
2022/09/28 08:05:20;;;;;;;5.13;2.80;;;9.70;99.90;;;;;;5081005;28;20452;-72
2022/09/28 08:07:46;;;;;;;6.60;3.03;;;9.80;99.90;;;;;;5079204;28;20119;-72
2022/09/28 08:10:11;;;;;;;6.47;3.23;;;9.80;99.90;;;;;;5095176;22;20128;-84
2022/09/28 08:12:40;;;;;;;7.10;2.53;;;9.90;99.90;;;;;;5067244;28;20086;-87
2022/09/28 08:15:10;;;;;;;5.65;3.25;;;9.90;99.90;;;;;;5066540;28;20043;-82
2022/09/28 08:17:36;;;;;;;6.07;3.15;;;10.00;99.90;;;;;;5043182;28;20132;-83
2022/09/28 08:22:46;;;;;;;5.00;2.58;;;10.20;99.90;;;;;;5063468;28;20059;-83
2022/09/28 08:25:12;;;;;;;5.00;2.40;;;10.20;99.90;;;;;;5062292;28;20489;-84
2022/09/28 08:27:40;;;;;;;4.37;2.47;;;10.30;99.90;;;;;;5050888;28;20036;-84
2022/09/28 08:30:06;;;;;;;7.60;2.20;;;10.40;99.90;;;;;;5051206;28;20289;-83
2022/09/28 08:32:32;;;;;;;4.20;2.58;;;10.40;99.90;;;;;;5051518;28;20408;-82
2022/09/28 08:34:58;;;;;;;3.30;1.90;;;10.50;99.90;;;;;;5051248;28;20074;-83
2022/09/28 08:37:27;;;;;;;3.78;1.50;;;10.60;99.90;;;;;;5069206;28;20043;-83
2022/09/28 08:39:53;;;;;;;3.67;1.70;;;10.60;99.90;;;;;;5065078;28;20033;-82
2022/09/28 08:42:41;;;;;;;3.67;1.85;;;10.80;99.90;;;;;;5048343;28;20110;-82
2022/09/28 08:45:20;;;;;;;6.47;1.73;;;10.80;99.90;;;;;;5060825;28;20033;-82
2022/09/28 08:48:43;;;;;;;4.90;1.45;;;10.90;99.90;;;;;;5061930;28;20094;-82
2022/09/28 08:51:17;;;;;;;3.58;1.50;;;11.00;99.90;;;;;;5065391;28;20040;-82
2022/09/28 08:53:59;;;;;;;4.20;1.38;;;11.10;99.90;;;;;;5055198;28;20041;-83
2022/09/28 08:56:31;;;;;;;4.57;1.95;;;11.10;99.90;;;;;;5062098;28;20036;-83
2022/09/28 08:59:01;;;;;;;3.00;1.67;;;11.30;99.90;;;;;;5048981;28;20450;-82
2022/09/28 09:01:33;;;;;;;3.13;1.35;;;11.30;99.90;;;;;;5051112;28;20047;-83
2022/09/28 09:03:59;;;;;;;2.53;1.52;;;11.30;99.90;;;;;;5078063;28;20471;-83
2022/09/28 09:06:30;;;;;;;3.92;1.65;;;11.40;99.90;;;;;;5063366;28;20045;-82
2022/09/28 09:09:19;;;;;;;2.53;1.33;;;11.50;99.90;;;;;;5087007;28;20037;-83
2022/09/28 09:12:18;;;;;;;2.20;1.20;;;11.60;99.90;;;;;;5081407;28;20515;-83
2022/09/28 09:15:02;;;;;;;3.13;0.77;;;11.60;99.90;;;;;;5063366;28;20045;-81
2022/09/28 09:17:30;;;;;;;2.60;1.02;;;11.70;99.90;;;;;;5045441;28;20044;-83
2022/09/28 09:20:18;;;;;;;2.40;0.98;;;11.70;99.90;;;;;;5066882;28;20368;-82
2022/09/28 09:22:58;;;;;;;2.97;0.77;;;11.80;99.90;;;;;;5042950;28;20294;-82
2022/09/28 09:25:41;;;;;;;1.60;0.80;;;11.80;99.90;;;;;;5046848;28;20074;-82
2022/09/28 09:28:29;;;;;;;4.47;0.47;;;11.90;99.90;;;;;;5060485;28;20043;-82
2022/09/28 09:31:16;;;;;;;1.98;0.30;;;12.00;99.90;;;;;;5060017;28;20032;-82
2022/09/28 09:34:05;;;;;;;0.38;0.13;;;12.10;99.90;;;;;;5063250;28;20408;-83
2022/09/28 09:36:40;;;;;;;1.00;0.40;;;12.10;99.90;;;;;;5066237;28;20325;-83
2022/09/28 09:39:27;;;;;;;3.88;0.50;;;12.10;99.90;;;;;;5088306;28;20036;-83
2022/09/28 09:41:59;;;;;;;;;;;12.20;99.90;;;;;;5043220;28;20036;-82
2022/09/28 09:44:39;;;;;;;0.40;0.08;;;12.30;99.90;;;;;;5062457;28;20009;-82
2022/09/28 09:47:13;;;;;;;1.75;0.30;;;12.40;99.90;;;;;;5060634;28;20138;-81
2022/09/28 09:50:10;;;;;;;1.33;0.55;;;12.50;99.90;;;;;;5060656;28;20039;-82
2022/09/28 09:52:43;;;;;;;1.17;0.47;;;12.60;99.90;;;;;;5044469;28;20102;-82
2022/09/28 09:55:26;;;;;;;0.77;0.30;;;12.70;99.90;;;;;;5063764;28;20040;-82
2022/09/28 09:58:16;;;;;;;1.40;0.40;;;12.80;99.90;;;;;;5072917;28;20038;-83
2022/09/28 10:00:45;;;;;;;2.85;0.25;;;12.90;99.90;;;;;;5083662;28;20135;-82
2022/09/28 10:03:27;;;;;;;2.50;0.20;;;13.10;99.90;;;;;;5062925;28;20048;-83
2022/09/28 10:06:07;;;;;;;1.45;0.28;;;13.10;99.90;;;;;;5060443;28;20310;-82
2022/09/28 10:09:13;;;;;;;0.28;0.10;;;13.10;99.90;;;;;;5058982;28;20036;-82
2022/09/28 10:11:44;;;;;;;2.28;0.45;;;13.10;99.90;;;;;;5061609;28;20045;-82
2022/09/28 10:14:16;;;;;;;0.95;0.22;;;13.20;99.90;;;;;;5049953;28;20134;-86
2022/09/28 10:16:44;;;;;;;0.57;0.20;;;13.30;99.90;;;;;;5057555;28;20255;-83
2022/09/28 10:19:12;;;;;;;1.30;0.20;;;13.40;99.90;;;;;;5057394;28;20492;-82
2022/09/28 10:21:40;;;;;;;0.40;0.20;;;13.50;99.90;;;;;;5069962;28;20477;-83
2022/09/28 10:24:41;;;;;;;0.20;0.10;;;13.60;99.90;;;;;;5068633;28;20137;-83
2022/09/28 10:27:13;;;;;;;0.52;0.20;;;13.70;99.90;;;;;;5056388;28;20041;-84
2022/09/28 10:29:49;;;;;;;0.88;0.30;;;13.80;99.90;;;;;;5051065;28;20068;-84
2022/09/28 10:32:24;;;;;;;1.98;0.20;;;13.80;99.90;;;;;;5044011;28;20323;-81
2022/09/28 10:34:51;;;;;;;0.60;0.20;;;13.70;99.90;;;;;;5047542;28;20048;-83
2022/09/28 10:37:18;;;;;;;1.38;0.60;;;13.70;99.90;;;;;;5044553;28;20223;-83
2022/09/28 10:39:52;;;;;;;0.40;0.10;;;13.70;99.90;;;;;;5067224;28;20055;-83
2022/09/28 10:42:22;;;;;;;0.35;0.30;;;13.60;99.90;;;;;;5046489;28;20048;-84
2022/09/28 10:44:53;;;;;;;0.55;0.20;;;13.60;99.90;;;;;;5060471;28;20049;-83
2022/09/28 10:47:21;;;;;;;0.32;0.13;;;13.60;99.90;;;;;;5067905;28;20554;-83
2022/09/28 10:49:49;;;;;;;0.73;0.13;;;14.00;99.90;;;;;;5061358;28;20045;-83
2022/09/28 10:52:41;;;;;;;0.35;0.13;;;14.10;99.90;;;;;;5084592;28;20102;-83
2022/09/28 10:55:35;;;;;;;0.52;0.20;;;14.20;99.90;;;;;;5060999;28;20045;-82
2022/09/28 10:58:23;;;;;;;0.10;0.10;;;14.30;99.90;;;;;;5044799;28;20040;-82
2022/09/28 11:00:49;;;;;;;0.22;0.10;;;14.40;99.90;;;;;;5062023;28;20381;-84
2022/09/28 11:03:26;;;;;;;0.90;0.10;;;14.20;99.90;;;;;;5054067;28;20067;-84
2022/09/28 11:06:01;;;;;;;1.40;0.40;;;14.30;99.90;;;;;;5050755;28;20049;-84
2022/09/28 11:08:37;;;;;;;0.05;0.00;;;14.20;99.90;;;;;;5043304;28;20073;-83
2022/09/28 11:11:13;;;;;;;0.38;0.20;;;14.10;99.90;;;;;;5058465;28;20055;-83
2022/09/28 11:13:45;;;;;;;0.30;0.10;;;14.00;99.90;;;;;;5070748;28;20056;-84
2022/09/28 11:16:27;;;;;;;3.70;0.20;;;14.00;99.90;;;;;;5053205;28;20505;-84
2022/09/28 11:18:54;;;;;;;1.38;0.30;;;13.90;99.90;;;;;;5073480;28;20039;-83
2022/09/28 11:21:26;;;;;;;0.35;0.10;;;13.80;99.90;;;;;;5064178;28;20043;-83
2022/09/28 11:24:15;;;;;;;0.55;0.13;;;13.80;99.90;;;;;;5055359;28;20093;-82
2022/09/28 11:26:51;;;;;;;1.80;0.65;;;13.80;99.90;;;;;;5053595;28;20332;-83
2022/09/28 11:29:40;;;;;;;0.35;0.03;;;13.70;99.90;;;;;;5084914;28;20039;-83
2022/09/28 11:32:07;;;;;;;0.20;0.10;;;13.80;99.90;;;;;;5068941;28;20052;-84
2022/09/28 11:34:36;;;;;;;0.65;0.10;;;13.70;99.90;;;;;;5048071;28;20047;-83
2022/09/28 11:37:23;;;;;;;1.75;0.10;;;13.70;99.90;;;;;;5054423;28;20040;-83
2022/09/28 11:40:01;;;;;;;1.25;0.22;;;13.70;99.90;;;;;;5069811;28;20504;-83
2022/09/28 11:42:42;;;;;;;1.08;0.82;;;13.60;99.90;;;;;;5056219;28;20557;-82
2022/09/28 11:45:27;;;;;;;0.32;0.10;;;13.60;99.90;;;;;;5048234;28;20047;-83
2022/09/28 11:48:01;;;;;;;1.33;0.20;;;13.60;99.90;;;;;;5068882;28;20029;-83
2022/09/28 11:50:47;;;;;;;0.98;0.10;;;13.50;99.90;;;;;;5070915;28;20043;-84
2022/09/28 11:53:48;;;;;;;4.07;0.60;;;13.50;99.90;;;;;;5052868;28;20041;-82
2022/09/28 11:56:40;;;;;;;1.38;0.30;;;13.40;99.90;;;;;;5034155;28;20048;-83
2022/09/28 11:59:32;;;;;;;1.45;0.20;;;13.40;99.90;;;;;;5066753;28;20071;-83
2022/09/28 12:02:09;;;;;;;1.25;0.40;;;13.30;99.90;;;;;;5048226;28;20189;-83
2022/09/28 12:04:45;;;;;;;1.00;0.40;;;13.30;99.90;;;;;;5086169;28;20159;-84
2022/09/28 12:07:33;;;;;;;0.60;0.50;;;13.40;99.90;;;;;;5059920;28;20044;-84
2022/09/28 12:09:58;;;;;;;1.67;0.30;;;13.30;99.90;;;;;;5066616;28;20044;-85
2022/09/28 12:12:34;;;;;;;2.67;0.30;;;13.30;99.90;;;;;;5067352;28;20051;-83
2022/09/28 12:15:11;;;;;;;0.20;0.20;;;13.30;99.90;;;;;;5044628;28;20690;-83
2022/09/28 12:17:46;;;;;;;0.88;0.50;;;13.30;99.90;;;;;;5090075;28;20115;-83
2022/09/28 12:20:21;;;;;;;2.13;0.15;;;13.30;99.90;;;;;;5066306;28;20040;-83
2022/09/28 12:22:49;;;;;;;0.98;0.20;;;13.30;99.90;;;;;;5068966;28;20051;-80
2022/09/28 12:25:19;;;;;;;0.20;0.00;;;13.40;99.90;;;;;;5084232;28;20083;-83
2022/09/28 12:27:58;;;;;;;1.30;0.13;;;13.50;99.90;;;;;;5054600;28;20060;-84
2022/09/28 12:30:25;;;;;;;0.20;0.10;;;13.70;99.90;;;;;;5081598;28;20035;-85
2022/09/28 12:32:50;;;;;;;1.00;0.25;;;13.70;99.90;;;;;;5060669;28;20492;-83
2022/09/28 12:35:28;;;;;;;0.60;0.10;;;13.80;99.90;;;;;;5083214;28;20071;-83
2022/09/28 12:38:19;;;;;;;0.17;0.10;;;13.90;99.90;;;;;;5074449;28;20448;-83
2022/09/28 12:41:00;;;;;;;0.85;0.20;;;13.80;99.90;;;;;;5060210;28;20132;-84
2022/09/28 12:43:27;;;;;;;0.40;0.10;;;13.90;99.90;;;;;;5066374;28;20043;-86
2022/09/28 12:46:25;;;;;;;0.60;0.20;;;13.90;99.90;;;;;;5053727;28;20031;-85
2022/09/28 12:49:26;;;;;;;0.68;0.30;;;13.90;99.90;;;;;;5078758;28;20032;-83
2022/09/28 12:51:59;;;;;;;1.38;0.50;;;14.00;99.90;;;;;;5071760;28;20090;-83
2022/09/28 12:54:43;;;;;;;0.35;0.20;;;14.20;99.90;;;;;;5058789;28;20036;-83
2022/09/28 12:57:08;;;;;;;0.20;0.10;;;14.60;99.90;;;;;;5061867;28;20082;-81
2022/09/28 12:59:42;;;;;;;0.93;0.30;;;14.70;99.90;;;;;;5071789;28;20249;-83
2022/09/28 13:02:35;;;;;;;1.60;0.40;;;14.90;99.90;;;;;;5069904;28;20045;-84
2022/09/28 13:05:07;;;;;;;0.55;0.20;;;15.20;99.90;;;;;;5069856;28;20041;-83
2022/09/28 13:07:48;;;;;;;0.20;0.00;;;15.40;99.90;;;;;;5067466;28;20603;-82
2022/09/28 13:10:20;;;;;;;1.17;0.10;;;15.60;99.90;;;;;;5073341;28;20040;-84
2022/09/28 13:13:00;;;;;;;0.40;0.10;;;15.70;99.90;;;;;;5078883;28;20471;-83
2022/09/28 13:15:34;;;;;;;0.73;0.22;;;15.80;99.90;;;;;;5069943;28;20100;-84
2022/09/28 13:18:10;;;;;;;0.05;0.03;;;16.00;99.90;;;;;;5074989;28;20080;-84
2022/09/28 13:20:56;;;;;;;1.38;0.30;;;16.00;99.90;;;;;;5051786;28;20055;-83
2022/09/28 13:23:26;;;;;;;0.17;0.00;;;16.20;99.90;;;;;;5087029;28;20048;-83
2022/09/28 13:26:03;;;;;;;0.00;0.00;;;16.30;99.90;;;;;;5075356;28;20044;-83
2022/09/28 13:28:31;;;;;;;0.10;0.00;;;16.40;99.90;;;;;;5066096;28;20086;-83
2022/09/28 13:31:01;;;;;;;0.47;0.10;;;16.60;99.90;;;;;;5069268;28;20039;-84
2022/09/28 13:33:40;;;;;;;1.30;0.10;;;16.70;99.90;;;;;;5062889;28;20033;-84
2022/09/28 13:36:41;;;;;;;1.10;0.30;;;16.70;99.90;;;;;;5074134;28;20480;-82